sensor_id;sensor_type;location;lat;lon;timestamp;P1;durP1;ratioP1;P2;durP2;ratioP2
4724;SDS011;2376;53.544;10.226;2023-03-01T00:00:37;15.10;;;9.80;;
4724;SDS011;2376;53.544;10.226;2023-03-01T00:03:04;13.83;;;9.43;;
4724;SDS011;2376;53.544;10.226;2023-03-01T00:05:31;17.83;;;10.37;;
4724;SDS011;2376;53.544;10.226;2023-03-01T00:07:58;12.97;;;8.63;;
4724;SDS011;2376;53.544;10.226;2023-03-01T00:10:26;17.00;;;8.37;;
4724;SDS011;2376;53.544;10.226;2023-03-01T00:12:52;11.20;;;7.63;;
4724;SDS011;2376;53.544;10.226;2023-03-01T00:15:21;9.13;;;6.90;;
4724;SDS011;2376;53.544;10.226;2023-03-01T00:17:48;6.47;;;5.97;;
4724;SDS011;2376;53.544;10.226;2023-03-01T00:20:14;7.17;;;6.33;;
4724;SDS011;2376;53.544;10.226;2023-03-01T00:22:41;7.43;;;6.63;;
4724;SDS011;2376;53.544;10.226;2023-03-01T00:25:08;11.00;;;6.30;;
4724;SDS011;2376;53.544;10.226;2023-03-01T00:27:36;7.90;;;6.83;;
4724;SDS011;2376;53.544;10.226;2023-03-01T00:30:03;7.03;;;6.37;;
4724;SDS011;2376;53.544;10.226;2023-03-01T00:32:30;10.73;;;6.30;;
4724;SDS011;2376;53.544;10.226;2023-03-01T00:34:57;8.43;;;6.07;;
4724;SDS011;2376;53.544;10.226;2023-03-01T00:37:24;6.87;;;6.23;;
4724;SDS011;2376;53.544;10.226;2023-03-01T00:39:51;7.90;;;5.20;;
4724;SDS011;2376;53.544;10.226;2023-03-01T00:42:17;6.97;;;5.43;;
4724;SDS011;2376;53.544;10.226;2023-03-01T00:44:45;6.67;;;6.07;;
4724;SDS011;2376;53.544;10.226;2023-03-01T00:47:12;10.50;;;6.80;;
4724;SDS011;2376;53.544;10.226;2023-03-01T00:49:39;7.20;;;6.50;;
4724;SDS011;2376;53.544;10.226;2023-03-01T00:52:05;7.70;;;6.37;;
4724;SDS011;2376;53.544;10.226;2023-03-01T00:54:32;10.80;;;7.20;;
4724;SDS011;2376;53.544;10.226;2023-03-01T00:56:59;12.27;;;6.83;;
4724;SDS011;2376;53.544;10.226;2023-03-01T00:59:25;8.73;;;6.67;;
4724;SDS011;2376;53.544;10.226;2023-03-01T01:01:53;6.40;;;5.77;;
4724;SDS011;2376;53.544;10.226;2023-03-01T01:04:20;9.10;;;5.63;;
4724;SDS011;2376;53.544;10.226;2023-03-01T01:06:47;5.77;;;5.27;;
4724;SDS011;2376;53.544;10.226;2023-03-01T01:09:14;12.13;;;5.87;;
4724;SDS011;2376;53.544;10.226;2023-03-01T01:11:43;5.10;;;4.70;;
4724;SDS011;2376;53.544;10.226;2023-03-01T01:14:10;5.97;;;5.47;;
4724;SDS011;2376;53.544;10.226;2023-03-01T01:16:37;7.17;;;5.47;;
4724;SDS011;2376;53.544;10.226;2023-03-01T01:19:05;5.43;;;4.80;;
4724;SDS011;2376;53.544;10.226;2023-03-01T01:21:32;5.27;;;4.77;;
4724;SDS011;2376;53.544;10.226;2023-03-01T01:23:59;6.67;;;4.83;;
4724;SDS011;2376;53.544;10.226;2023-03-01T01:26:26;6.00;;;5.33;;
4724;SDS011;2376;53.544;10.226;2023-03-01T01:28:55;8.80;;;5.00;;
4724;SDS011;2376;53.544;10.226;2023-03-01T01:31:22;7.90;;;5.63;;
4724;SDS011;2376;53.544;10.226;2023-03-01T01:33:50;6.33;;;4.50;;
4724;SDS011;2376;53.544;10.226;2023-03-01T01:36:18;6.80;;;5.20;;
4724;SDS011;2376;53.544;10.226;2023-03-01T01:38:44;6.97;;;5.20;;
4724;SDS011;2376;53.544;10.226;2023-03-01T01:41:12;5.90;;;5.40;;
4724;SDS011;2376;53.544;10.226;2023-03-01T01:43:40;5.67;;;5.27;;
4724;SDS011;2376;53.544;10.226;2023-03-01T01:46:12;6.73;;;6.10;;
4724;SDS011;2376;53.544;10.226;2023-03-01T01:48:44;6.40;;;4.80;;
4724;SDS011;2376;53.544;10.226;2023-03-01T01:51:15;7.00;;;4.70;;
4724;SDS011;2376;53.544;10.226;2023-03-01T01:53:51;5.37;;;4.83;;
4724;SDS011;2376;53.544;10.226;2023-03-01T01:56:22;5.63;;;4.77;;
4724;SDS011;2376;53.544;10.226;2023-03-01T01:58:51;7.50;;;5.50;;
4724;SDS011;2376;53.544;10.226;2023-03-01T02:01:19;5.47;;;4.97;;
4724;SDS011;2376;53.544;10.226;2023-03-01T02:03:46;7.77;;;6.60;;
4724;SDS011;2376;53.544;10.226;2023-03-01T02:06:16;9.10;;;5.40;;
4724;SDS011;2376;53.544;10.226;2023-03-01T02:08:48;6.13;;;5.53;;
4724;SDS011;2376;53.544;10.226;2023-03-01T02:11:16;7.87;;;5.73;;
4724;SDS011;2376;53.544;10.226;2023-03-01T02:13:44;9.10;;;5.53;;
4724;SDS011;2376;53.544;10.226;2023-03-01T02:16:13;8.50;;;5.13;;
4724;SDS011;2376;53.544;10.226;2023-03-01T02:18:41;5.17;;;4.67;;
4724;SDS011;2376;53.544;10.226;2023-03-01T02:21:12;7.00;;;5.97;;
4724;SDS011;2376;53.544;10.226;2023-03-01T02:23:47;7.33;;;6.40;;
4724;SDS011;2376;53.544;10.226;2023-03-01T02:26:17;7.10;;;5.27;;
4724;SDS011;2376;53.544;10.226;2023-03-01T02:28:49;7.77;;;5.77;;
4724;SDS011;2376;53.544;10.226;2023-03-01T02:31:17;6.13;;;5.30;;
4724;SDS011;2376;53.544;10.226;2023-03-01T02:34:03;5.70;;;5.17;;
4724;SDS011;2376;53.544;10.226;2023-03-01T02:36:34;8.40;;;5.17;;
4724;SDS011;2376;53.544;10.226;2023-03-01T02:39:03;8.30;;;5.07;;
4724;SDS011;2376;53.544;10.226;2023-03-01T02:44:49;5.63;;;4.57;;
4724;SDS011;2376;53.544;10.226;2023-03-01T02:47:16;5.50;;;4.60;;
4724;SDS011;2376;53.544;10.226;2023-03-01T02:49:43;7.93;;;4.10;;
4724;SDS011;2376;53.544;10.226;2023-03-01T02:52:15;5.20;;;4.70;;
4724;SDS011;2376;53.544;10.226;2023-03-01T02:54:50;5.70;;;5.17;;
4724;SDS011;2376;53.544;10.226;2023-03-01T02:57:24;4.40;;;4.10;;
4724;SDS011;2376;53.544;10.226;2023-03-01T02:59:53;5.47;;;4.80;;
4724;SDS011;2376;53.544;10.226;2023-03-01T03:02:23;6.20;;;5.23;;
4724;SDS011;2376;53.544;10.226;2023-03-01T03:05:01;5.73;;;5.20;;
4724;SDS011;2376;53.544;10.226;2023-03-01T03:07:31;4.93;;;4.53;;
4724;SDS011;2376;53.544;10.226;2023-03-01T03:09:58;4.50;;;4.10;;
4724;SDS011;2376;53.544;10.226;2023-03-01T03:12:25;5.63;;;5.13;;
4724;SDS011;2376;53.544;10.226;2023-03-01T03:14:52;6.87;;;4.90;;
4724;SDS011;2376;53.544;10.226;2023-03-01T03:17:20;7.93;;;5.00;;
4724;SDS011;2376;53.544;10.226;2023-03-01T03:19:46;6.13;;;5.30;;
4724;SDS011;2376;53.544;10.226;2023-03-01T03:22:13;5.97;;;5.07;;
4724;SDS011;2376;53.544;10.226;2023-03-01T03:24:40;7.17;;;6.13;;
4724;SDS011;2376;53.544;10.226;2023-03-01T03:27:07;6.10;;;5.63;;
4724;SDS011;2376;53.544;10.226;2023-03-01T03:29:34;6.17;;;5.50;;
4724;SDS011;2376;53.544;10.226;2023-03-01T03:32:02;7.27;;;6.57;;
4724;SDS011;2376;53.544;10.226;2023-03-01T03:34:29;5.87;;;5.30;;
4724;SDS011;2376;53.544;10.226;2023-03-01T03:36:56;5.83;;;5.40;;
4724;SDS011;2376;53.544;10.226;2023-03-01T03:39:24;6.77;;;6.07;;
4724;SDS011;2376;53.544;10.226;2023-03-01T03:41:51;7.17;;;6.40;;
4724;SDS011;2376;53.544;10.226;2023-03-01T03:44:19;6.53;;;5.30;;
4724;SDS011;2376;53.544;10.226;2023-03-01T03:46:46;7.33;;;4.97;;
4724;SDS011;2376;53.544;10.226;2023-03-01T03:49:14;9.30;;;6.00;;
4724;SDS011;2376;53.544;10.226;2023-03-01T03:51:41;5.70;;;5.20;;
4724;SDS011;2376;53.544;10.226;2023-03-01T03:54:08;6.47;;;5.87;;
4724;SDS011;2376;53.544;10.226;2023-03-01T03:56:36;7.40;;;5.60;;
4724;SDS011;2376;53.544;10.226;2023-03-01T03:59:02;10.03;;;6.43;;
4724;SDS011;2376;53.544;10.226;2023-03-01T04:01:30;8.80;;;6.13;;
4724;SDS011;2376;53.544;10.226;2023-03-01T04:03:57;8.80;;;7.87;;
4724;SDS011;2376;53.544;10.226;2023-03-01T04:06:30;6.90;;;5.60;;
4724;SDS011;2376;53.544;10.226;2023-03-01T04:08:57;6.37;;;5.60;;
4724;SDS011;2376;53.544;10.226;2023-03-01T04:11:25;6.80;;;6.10;;
4724;SDS011;2376;53.544;10.226;2023-03-01T04:13:52;6.03;;;5.37;;
4724;SDS011;2376;53.544;10.226;2023-03-01T04:16:20;9.60;;;6.33;;
4724;SDS011;2376;53.544;10.226;2023-03-01T04:18:48;8.27;;;7.10;;
4724;SDS011;2376;53.544;10.226;2023-03-01T04:21:15;8.97;;;6.77;;
4724;SDS011;2376;53.544;10.226;2023-03-01T04:23:43;7.13;;;5.57;;
4724;SDS011;2376;53.544;10.226;2023-03-01T04:26:10;8.10;;;6.53;;
4724;SDS011;2376;53.544;10.226;2023-03-01T04:28:37;10.73;;;6.30;;
4724;SDS011;2376;53.544;10.226;2023-03-01T04:31:08;9.33;;;6.17;;
4724;SDS011;2376;53.544;10.226;2023-03-01T04:33:39;7.67;;;6.30;;
4724;SDS011;2376;53.544;10.226;2023-03-01T04:36:07;12.50;;;6.63;;
4724;SDS011;2376;53.544;10.226;2023-03-01T04:38:34;9.67;;;5.83;;
4724;SDS011;2376;53.544;10.226;2023-03-01T04:41:04;9.43;;;6.10;;
4724;SDS011;2376;53.544;10.226;2023-03-01T04:43:31;5.77;;;5.27;;
4724;SDS011;2376;53.544;10.226;2023-03-01T04:46:02;6.37;;;5.77;;
4724;SDS011;2376;53.544;10.226;2023-03-01T04:48:31;7.20;;;5.50;;
4724;SDS011;2376;53.544;10.226;2023-03-01T04:50:58;10.60;;;6.67;;
4724;SDS011;2376;53.544;10.226;2023-03-01T04:53:25;8.90;;;6.27;;
4724;SDS011;2376;53.544;10.226;2023-03-01T04:55:53;8.23;;;6.70;;
4724;SDS011;2376;53.544;10.226;2023-03-01T04:58:22;5.97;;;5.43;;
4724;SDS011;2376;53.544;10.226;2023-03-01T05:00:49;6.40;;;5.80;;
4724;SDS011;2376;53.544;10.226;2023-03-01T05:03:15;6.70;;;6.10;;
4724;SDS011;2376;53.544;10.226;2023-03-01T05:05:43;7.37;;;6.10;;
4724;SDS011;2376;53.544;10.226;2023-03-01T05:08:11;6.30;;;5.80;;
4724;SDS011;2376;53.544;10.226;2023-03-01T05:10:42;7.27;;;5.83;;
4724;SDS011;2376;53.544;10.226;2023-03-01T05:13:10;6.50;;;6.00;;
4724;SDS011;2376;53.544;10.226;2023-03-01T05:15:41;9.53;;;6.47;;
4724;SDS011;2376;53.544;10.226;2023-03-01T05:18:08;7.07;;;6.40;;
4724;SDS011;2376;53.544;10.226;2023-03-01T05:20:36;5.57;;;5.07;;
4724;SDS011;2376;53.544;10.226;2023-03-01T05:23:04;6.60;;;5.93;;
4724;SDS011;2376;53.544;10.226;2023-03-01T05:25:31;6.00;;;5.43;;
4724;SDS011;2376;53.544;10.226;2023-03-01T05:27:59;6.27;;;5.73;;
4724;SDS011;2376;53.544;10.226;2023-03-01T05:30:29;6.27;;;5.00;;
4724;SDS011;2376;53.544;10.226;2023-03-01T05:32:57;6.20;;;5.60;;
4724;SDS011;2376;53.544;10.226;2023-03-01T05:35:24;8.30;;;6.17;;
4724;SDS011;2376;53.544;10.226;2023-03-01T05:37:51;6.63;;;6.03;;
4724;SDS011;2376;53.544;10.226;2023-03-01T05:40:19;8.80;;;5.63;;
4724;SDS011;2376;53.544;10.226;2023-03-01T05:42:47;7.53;;;6.13;;
4724;SDS011;2376;53.544;10.226;2023-03-01T05:45:16;8.77;;;6.33;;
4724;SDS011;2376;53.544;10.226;2023-03-01T05:47:44;8.30;;;5.00;;
4724;SDS011;2376;53.544;10.226;2023-03-01T05:50:14;6.40;;;5.80;;
4724;SDS011;2376;53.544;10.226;2023-03-01T05:52:44;8.13;;;5.27;;
4724;SDS011;2376;53.544;10.226;2023-03-01T05:55:12;7.23;;;5.17;;
4724;SDS011;2376;53.544;10.226;2023-03-01T05:57:39;6.70;;;5.37;;
4724;SDS011;2376;53.544;10.226;2023-03-01T06:00:06;5.80;;;5.20;;
4724;SDS011;2376;53.544;10.226;2023-03-01T06:02:33;7.03;;;6.00;;
4724;SDS011;2376;53.544;10.226;2023-03-01T06:05:00;6.63;;;5.93;;
4724;SDS011;2376;53.544;10.226;2023-03-01T06:07:36;7.73;;;6.07;;
4724;SDS011;2376;53.544;10.226;2023-03-01T06:10:03;5.90;;;5.33;;
4724;SDS011;2376;53.544;10.226;2023-03-01T06:12:36;7.23;;;5.90;;
4724;SDS011;2376;53.544;10.226;2023-03-01T06:15:07;5.07;;;4.67;;
4724;SDS011;2376;53.544;10.226;2023-03-01T06:17:35;6.73;;;6.13;;
4724;SDS011;2376;53.544;10.226;2023-03-01T06:20:03;11.23;;;5.53;;
4724;SDS011;2376;53.544;10.226;2023-03-01T06:22:31;7.33;;;5.77;;
4724;SDS011;2376;53.544;10.226;2023-03-01T06:25:02;6.37;;;5.50;;
4724;SDS011;2376;53.544;10.226;2023-03-01T06:27:29;5.57;;;4.93;;
4724;SDS011;2376;53.544;10.226;2023-03-01T06:29:56;9.67;;;6.17;;
4724;SDS011;2376;53.544;10.226;2023-03-01T06:32:23;6.87;;;5.70;;
4724;SDS011;2376;53.544;10.226;2023-03-01T06:34:49;6.40;;;5.80;;
4724;SDS011;2376;53.544;10.226;2023-03-01T06:37:16;10.80;;;6.20;;
4724;SDS011;2376;53.544;10.226;2023-03-01T06:39:44;6.50;;;5.90;;
4724;SDS011;2376;53.544;10.226;2023-03-01T06:42:12;8.33;;;6.20;;
4724;SDS011;2376;53.544;10.226;2023-03-01T06:44:40;8.43;;;6.47;;
4724;SDS011;2376;53.544;10.226;2023-03-01T06:47:07;7.60;;;5.57;;
4724;SDS011;2376;53.544;10.226;2023-03-01T06:49:34;6.13;;;5.63;;
4724;SDS011;2376;53.544;10.226;2023-03-01T06:52:00;9.23;;;6.57;;
4724;SDS011;2376;53.544;10.226;2023-03-01T06:54:27;9.97;;;8.93;;
4724;SDS011;2376;53.544;10.226;2023-03-01T06:56:54;7.43;;;6.70;;
4724;SDS011;2376;53.544;10.226;2023-03-01T06:59:22;7.83;;;6.70;;
4724;SDS011;2376;53.544;10.226;2023-03-01T07:01:48;10.43;;;7.03;;
4724;SDS011;2376;53.544;10.226;2023-03-01T07:04:15;9.70;;;5.90;;
4724;SDS011;2376;53.544;10.226;2023-03-01T07:06:42;10.87;;;8.47;;
4724;SDS011;2376;53.544;10.226;2023-03-01T07:09:08;15.50;;;10.20;;
4724;SDS011;2376;53.544;10.226;2023-03-01T07:11:35;23.83;;;10.60;;
4724;SDS011;2376;53.544;10.226;2023-03-01T07:14:02;18.67;;;10.00;;
4724;SDS011;2376;53.544;10.226;2023-03-01T07:16:30;22.33;;;9.70;;
4724;SDS011;2376;53.544;10.226;2023-03-01T07:18:57;39.47;;;11.43;;
4724;SDS011;2376;53.544;10.226;2023-03-01T07:21:23;23.97;;;12.13;;
4724;SDS011;2376;53.544;10.226;2023-03-01T07:23:50;25.27;;;10.93;;
4724;SDS011;2376;53.544;10.226;2023-03-01T07:26:17;20.73;;;10.47;;
4724;SDS011;2376;53.544;10.226;2023-03-01T07:28:44;17.93;;;10.47;;
4724;SDS011;2376;53.544;10.226;2023-03-01T07:31:10;20.90;;;10.07;;
4724;SDS011;2376;53.544;10.226;2023-03-01T07:33:39;17.13;;;10.40;;
4724;SDS011;2376;53.544;10.226;2023-03-01T07:36:06;33.93;;;18.23;;
4724;SDS011;2376;53.544;10.226;2023-03-01T07:38:33;58.13;;;21.43;;
4724;SDS011;2376;53.544;10.226;2023-03-01T07:41:00;59.97;;;21.53;;
4724;SDS011;2376;53.544;10.226;2023-03-01T07:43:29;64.50;;;20.10;;
4724;SDS011;2376;53.544;10.226;2023-03-01T07:45:57;63.13;;;21.00;;
4724;SDS011;2376;53.544;10.226;2023-03-01T07:48:25;14.20;;;8.70;;
4724;SDS011;2376;53.544;10.226;2023-03-01T07:50:53;17.10;;;8.80;;
4724;SDS011;2376;53.544;10.226;2023-03-01T07:53:20;10.37;;;9.17;;
4724;SDS011;2376;53.544;10.226;2023-03-01T07:55:46;14.30;;;8.63;;
4724;SDS011;2376;53.544;10.226;2023-03-01T07:58:13;13.40;;;8.97;;
4724;SDS011;2376;53.544;10.226;2023-03-01T08:00:40;10.03;;;8.63;;
4724;SDS011;2376;53.544;10.226;2023-03-01T08:03:07;9.83;;;8.50;;
4724;SDS011;2376;53.544;10.226;2023-03-01T08:05:33;12.40;;;8.30;;
4724;SDS011;2376;53.544;10.226;2023-03-01T08:08:02;8.77;;;7.83;;
4724;SDS011;2376;53.544;10.226;2023-03-01T08:10:30;9.87;;;7.83;;
4724;SDS011;2376;53.544;10.226;2023-03-01T08:12:56;10.90;;;8.03;;
4724;SDS011;2376;53.544;10.226;2023-03-01T08:15:23;9.00;;;8.10;;
4724;SDS011;2376;53.544;10.226;2023-03-01T08:17:50;14.00;;;9.27;;
4724;SDS011;2376;53.544;10.226;2023-03-01T08:20:16;12.33;;;8.23;;
4724;SDS011;2376;53.544;10.226;2023-03-01T08:22:43;11.47;;;8.40;;
4724;SDS011;2376;53.544;10.226;2023-03-01T08:25:11;9.07;;;8.10;;
4724;SDS011;2376;53.544;10.226;2023-03-01T08:27:38;8.70;;;7.80;;
4724;SDS011;2376;53.544;10.226;2023-03-01T08:30:06;9.77;;;7.90;;
4724;SDS011;2376;53.544;10.226;2023-03-01T08:32:36;11.83;;;7.60;;
4724;SDS011;2376;53.544;10.226;2023-03-01T08:35:05;10.20;;;7.37;;
4724;SDS011;2376;53.544;10.226;2023-03-01T08:37:32;7.70;;;6.90;;
4724;SDS011;2376;53.544;10.226;2023-03-01T08:39:59;9.60;;;8.23;;
4724;SDS011;2376;53.544;10.226;2023-03-01T08:42:29;9.30;;;8.40;;
4724;SDS011;2376;53.544;10.226;2023-03-01T08:44:56;8.70;;;7.80;;
4724;SDS011;2376;53.544;10.226;2023-03-01T08:47:23;12.40;;;8.10;;
4724;SDS011;2376;53.544;10.226;2023-03-01T08:49:51;10.87;;;7.23;;
4724;SDS011;2376;53.544;10.226;2023-03-01T08:52:18;9.07;;;7.50;;
4724;SDS011;2376;53.544;10.226;2023-03-01T08:54:46;9.37;;;7.63;;
4724;SDS011;2376;53.544;10.226;2023-03-01T08:57:14;8.97;;;7.67;;
4724;SDS011;2376;53.544;10.226;2023-03-01T08:59:42;9.83;;;8.83;;
4724;SDS011;2376;53.544;10.226;2023-03-01T09:02:11;13.80;;;9.63;;
4724;SDS011;2376;53.544;10.226;2023-03-01T09:04:39;15.00;;;9.33;;
4724;SDS011;2376;53.544;10.226;2023-03-01T09:07:06;11.20;;;10.10;;
4724;SDS011;2376;53.544;10.226;2023-03-01T09:09:34;11.23;;;9.70;;
4724;SDS011;2376;53.544;10.226;2023-03-01T09:12:02;9.87;;;8.47;;
4724;SDS011;2376;53.544;10.226;2023-03-01T09:14:29;13.27;;;9.63;;
4724;SDS011;2376;53.544;10.226;2023-03-01T09:16:57;16.57;;;9.87;;
4724;SDS011;2376;53.544;10.226;2023-03-01T09:19:27;11.47;;;10.00;;
4724;SDS011;2376;53.544;10.226;2023-03-01T09:21:54;10.60;;;9.60;;
4724;SDS011;2376;53.544;10.226;2023-03-01T09:24:23;14.17;;;10.07;;
4724;SDS011;2376;53.544;10.226;2023-03-01T09:26:52;10.83;;;9.77;;
4724;SDS011;2376;53.544;10.226;2023-03-01T09:29:19;12.00;;;9.70;;
4724;SDS011;2376;53.544;10.226;2023-03-01T09:31:46;9.60;;;8.20;;
4724;SDS011;2376;53.544;10.226;2023-03-01T09:34:14;12.13;;;8.93;;
4724;SDS011;2376;53.544;10.226;2023-03-01T09:36:44;11.97;;;10.77;;
4724;SDS011;2376;53.544;10.226;2023-03-01T09:39:11;11.57;;;10.37;;
4724;SDS011;2376;53.544;10.226;2023-03-01T09:41:42;10.00;;;8.67;;
4724;SDS011;2376;53.544;10.226;2023-03-01T09:44:13;9.80;;;9.00;;
4724;SDS011;2376;53.544;10.226;2023-03-01T09:47:09;10.50;;;9.50;;
4724;SDS011;2376;53.544;10.226;2023-03-01T09:49:41;11.37;;;10.27;;
4724;SDS011;2376;53.544;10.226;2023-03-01T09:52:16;9.00;;;8.10;;
4724;SDS011;2376;53.544;10.226;2023-03-01T09:54:49;10.93;;;9.33;;
4724;SDS011;2376;53.544;10.226;2023-03-01T09:57:20;12.70;;;8.83;;
4724;SDS011;2376;53.544;10.226;2023-03-01T10:00:12;12.10;;;8.60;;
4724;SDS011;2376;53.544;10.226;2023-03-01T10:02:47;10.53;;;9.47;;
4724;SDS011;2376;53.544;10.226;2023-03-01T10:05:29;10.90;;;9.80;;
4724;SDS011;2376;53.544;10.226;2023-03-01T10:08:04;10.53;;;9.23;;
4724;SDS011;2376;53.544;10.226;2023-03-01T10:10:46;12.90;;;9.60;;
4724;SDS011;2376;53.544;10.226;2023-03-01T10:13:15;9.43;;;8.50;;
4724;SDS011;2376;53.544;10.226;2023-03-01T10:15:47;10.03;;;8.90;;
4724;SDS011;2376;53.544;10.226;2023-03-01T10:18:20;10.97;;;9.40;;
4724;SDS011;2376;53.544;10.226;2023-03-01T10:20:53;10.37;;;7.93;;
4724;SDS011;2376;53.544;10.226;2023-03-01T10:23:22;8.27;;;7.23;;
4724;SDS011;2376;53.544;10.226;2023-03-01T10:26:00;11.63;;;8.80;;
4724;SDS011;2376;53.544;10.226;2023-03-01T10:28:38;10.20;;;9.07;;
4724;SDS011;2376;53.544;10.226;2023-03-01T10:31:11;8.60;;;7.67;;
4724;SDS011;2376;53.544;10.226;2023-03-01T10:33:39;8.87;;;7.97;;
4724;SDS011;2376;53.544;10.226;2023-03-01T10:36:09;8.57;;;7.53;;
4724;SDS011;2376;53.544;10.226;2023-03-01T10:38:47;8.13;;;7.33;;
4724;SDS011;2376;53.544;10.226;2023-03-01T10:41:17;9.40;;;7.87;;
4724;SDS011;2376;53.544;10.226;2023-03-01T10:43:45;13.43;;;9.43;;
4724;SDS011;2376;53.544;10.226;2023-03-01T10:46:23;12.50;;;9.47;;
4724;SDS011;2376;53.544;10.226;2023-03-01T10:49:10;9.53;;;8.63;;
4724;SDS011;2376;53.544;10.226;2023-03-01T10:51:42;10.50;;;8.43;;
4724;SDS011;2376;53.544;10.226;2023-03-01T10:54:15;10.47;;;9.43;;
4724;SDS011;2376;53.544;10.226;2023-03-01T10:56:47;12.70;;;9.50;;
4724;SDS011;2376;53.544;10.226;2023-03-01T11:02:01;11.33;;;9.00;;
4724;SDS011;2376;53.544;10.226;2023-03-01T11:04:39;10.33;;;9.33;;
4724;SDS011;2376;53.544;10.226;2023-03-01T11:07:08;10.77;;;9.20;;
4724;SDS011;2376;53.544;10.226;2023-03-01T11:09:35;9.37;;;8.40;;
4724;SDS011;2376;53.544;10.226;2023-03-01T11:12:03;8.27;;;7.50;;
4724;SDS011;2376;53.544;10.226;2023-03-01T11:14:39;8.87;;;7.97;;
4724;SDS011;2376;53.544;10.226;2023-03-01T11:17:13;8.60;;;7.60;;
4724;SDS011;2376;53.544;10.226;2023-03-01T11:19:43;6.07;;;5.47;;
4724;SDS011;2376;53.544;10.226;2023-03-01T11:22:28;7.10;;;6.27;;
4724;SDS011;2376;53.544;10.226;2023-03-01T11:24:56;6.13;;;5.63;;
4724;SDS011;2376;53.544;10.226;2023-03-01T11:27:25;7.10;;;6.40;;
4724;SDS011;2376;53.544;10.226;2023-03-01T11:29:54;7.43;;;6.77;;
4724;SDS011;2376;53.544;10.226;2023-03-01T11:32:24;6.93;;;6.33;;
4724;SDS011;2376;53.544;10.226;2023-03-01T11:34:56;8.17;;;7.37;;
4724;SDS011;2376;53.544;10.226;2023-03-01T11:37:30;8.10;;;7.40;;
4724;SDS011;2376;53.544;10.226;2023-03-01T11:40:03;9.10;;;8.03;;
4724;SDS011;2376;53.544;10.226;2023-03-01T11:42:42;8.90;;;8.00;;
4724;SDS011;2376;53.544;10.226;2023-03-01T11:45:14;9.23;;;7.07;;
4724;SDS011;2376;53.544;10.226;2023-03-01T11:47:51;8.40;;;7.10;;
4724;SDS011;2376;53.544;10.226;2023-03-01T11:50:28;10.30;;;7.27;;
4724;SDS011;2376;53.544;10.226;2023-03-01T11:53:08;7.80;;;7.10;;
4724;SDS011;2376;53.544;10.226;2023-03-01T11:55:59;8.20;;;7.40;;
4724;SDS011;2376;53.544;10.226;2023-03-01T11:58:41;9.33;;;8.27;;
4724;SDS011;2376;53.544;10.226;2023-03-01T12:04:14;8.33;;;7.60;;
4724;SDS011;2376;53.544;10.226;2023-03-01T12:06:59;9.83;;;8.93;;
4724;SDS011;2376;53.544;10.226;2023-03-01T12:09:33;9.13;;;8.30;;
4724;SDS011;2376;53.544;10.226;2023-03-01T12:12:25;10.20;;;9.20;;
4724;SDS011;2376;53.544;10.226;2023-03-01T12:15:20;11.33;;;9.83;;
4724;SDS011;2376;53.544;10.226;2023-03-01T12:18:05;13.90;;;11.10;;
4724;SDS011;2376;53.544;10.226;2023-03-01T12:20:56;10.47;;;9.47;;
4724;SDS011;2376;53.544;10.226;2023-03-01T12:23:34;11.07;;;8.77;;
4724;SDS011;2376;53.544;10.226;2023-03-01T12:26:15;10.73;;;9.57;;
4724;SDS011;2376;53.544;10.226;2023-03-01T12:28:51;10.50;;;9.50;;
4724;SDS011;2376;53.544;10.226;2023-03-01T12:31:37;11.17;;;9.27;;
4724;SDS011;2376;53.544;10.226;2023-03-01T12:34:27;8.07;;;7.23;;
4724;SDS011;2376;53.544;10.226;2023-03-01T12:37:11;8.37;;;7.53;;
4724;SDS011;2376;53.544;10.226;2023-03-01T12:39:47;8.90;;;8.10;;
4724;SDS011;2376;53.544;10.226;2023-03-01T12:42:28;8.83;;;7.60;;
4724;SDS011;2376;53.544;10.226;2023-03-01T12:48:08;6.80;;;6.10;;
4724;SDS011;2376;53.544;10.226;2023-03-01T12:50:46;7.30;;;6.53;;
4724;SDS011;2376;53.544;10.226;2023-03-01T12:53:20;6.20;;;5.37;;
4724;SDS011;2376;53.544;10.226;2023-03-01T12:55:49;6.80;;;5.13;;
4724;SDS011;2376;53.544;10.226;2023-03-01T12:58:23;5.53;;;4.97;;
4724;SDS011;2376;53.544;10.226;2023-03-01T13:00:57;7.80;;;6.87;;
4724;SDS011;2376;53.544;10.226;2023-03-01T13:03:31;6.60;;;6.00;;
4724;SDS011;2376;53.544;10.226;2023-03-01T13:06:11;7.00;;;5.77;;
4724;SDS011;2376;53.544;10.226;2023-03-01T13:08:43;6.20;;;5.60;;
4724;SDS011;2376;53.544;10.226;2023-03-01T13:11:16;5.30;;;4.87;;
4724;SDS011;2376;53.544;10.226;2023-03-01T13:13:46;5.67;;;5.07;;
4724;SDS011;2376;53.544;10.226;2023-03-01T13:16:21;7.40;;;5.60;;
4724;SDS011;2376;53.544;10.226;2023-03-01T13:19:06;5.37;;;4.60;;
4724;SDS011;2376;53.544;10.226;2023-03-01T13:21:39;4.83;;;4.33;;
4724;SDS011;2376;53.544;10.226;2023-03-01T13:27:08;5.63;;;4.80;;
4724;SDS011;2376;53.544;10.226;2023-03-01T13:29:44;5.80;;;5.30;;
4724;SDS011;2376;53.544;10.226;2023-03-01T13:32:19;5.80;;;5.30;;
4724;SDS011;2376;53.544;10.226;2023-03-01T13:34:52;6.30;;;5.10;;
4724;SDS011;2376;53.544;10.226;2023-03-01T13:37:24;6.20;;;5.60;;
4724;SDS011;2376;53.544;10.226;2023-03-01T13:40:00;7.50;;;5.03;;
4724;SDS011;2376;53.544;10.226;2023-03-01T13:42:32;5.83;;;5.30;;
4724;SDS011;2376;53.544;10.226;2023-03-01T13:45:04;6.00;;;5.40;;
4724;SDS011;2376;53.544;10.226;2023-03-01T13:47:40;7.23;;;6.03;;
4724;SDS011;2376;53.544;10.226;2023-03-01T13:50:15;6.50;;;4.57;;
4724;SDS011;2376;53.544;10.226;2023-03-01T13:52:45;4.80;;;4.30;;
4724;SDS011;2376;53.544;10.226;2023-03-01T13:55:16;4.57;;;4.17;;
4724;SDS011;2376;53.544;10.226;2023-03-01T13:57:46;4.33;;;4.00;;
4724;SDS011;2376;53.544;10.226;2023-03-01T14:00:30;5.10;;;4.70;;
4724;SDS011;2376;53.544;10.226;2023-03-01T14:03:00;5.57;;;4.87;;
4724;SDS011;2376;53.544;10.226;2023-03-01T14:05:29;4.97;;;4.57;;
4724;SDS011;2376;53.544;10.226;2023-03-01T14:07:55;4.90;;;4.43;;
4724;SDS011;2376;53.544;10.226;2023-03-01T14:10:22;5.23;;;4.73;;
4724;SDS011;2376;53.544;10.226;2023-03-01T14:12:55;4.60;;;4.20;;
4724;SDS011;2376;53.544;10.226;2023-03-01T14:15:31;4.80;;;4.37;;
4724;SDS011;2376;53.544;10.226;2023-03-01T14:18:03;5.07;;;4.57;;
4724;SDS011;2376;53.544;10.226;2023-03-01T14:20:38;4.77;;;4.33;;
4724;SDS011;2376;53.544;10.226;2023-03-01T14:23:08;4.50;;;4.10;;
4724;SDS011;2376;53.544;10.226;2023-03-01T14:25:38;4.97;;;4.07;;
4724;SDS011;2376;53.544;10.226;2023-03-01T14:28:13;4.90;;;4.50;;
4724;SDS011;2376;53.544;10.226;2023-03-01T14:30:45;4.07;;;3.77;;
4724;SDS011;2376;53.544;10.226;2023-03-01T14:33:21;4.60;;;4.20;;
4724;SDS011;2376;53.544;10.226;2023-03-01T14:35:56;6.00;;;4.60;;
4724;SDS011;2376;53.544;10.226;2023-03-01T14:38:29;5.77;;;4.70;;
4724;SDS011;2376;53.544;10.226;2023-03-01T14:40:58;5.30;;;4.80;;
4724;SDS011;2376;53.544;10.226;2023-03-01T14:43:27;5.53;;;5.03;;
4724;SDS011;2376;53.544;10.226;2023-03-01T14:45:57;5.30;;;4.80;;
4724;SDS011;2376;53.544;10.226;2023-03-01T14:48:24;5.17;;;4.83;;
4724;SDS011;2376;53.544;10.226;2023-03-01T14:50:54;5.30;;;4.80;;
4724;SDS011;2376;53.544;10.226;2023-03-01T14:53:22;4.80;;;4.50;;
4724;SDS011;2376;53.544;10.226;2023-03-01T14:55:52;4.47;;;4.17;;
4724;SDS011;2376;53.544;10.226;2023-03-01T14:58:21;4.03;;;3.83;;
4724;SDS011;2376;53.544;10.226;2023-03-01T15:00:51;4.07;;;3.77;;
4724;SDS011;2376;53.544;10.226;2023-03-01T15:03:25;4.60;;;4.20;;
4724;SDS011;2376;53.544;10.226;2023-03-01T15:05:56;4.63;;;4.23;;
4724;SDS011;2376;53.544;10.226;2023-03-01T15:08:23;4.07;;;3.67;;
4724;SDS011;2376;53.544;10.226;2023-03-01T15:10:55;4.20;;;3.90;;
4724;SDS011;2376;53.544;10.226;2023-03-01T15:13:25;4.23;;;3.97;;
4724;SDS011;2376;53.544;10.226;2023-03-01T15:16:00;4.20;;;3.90;;
4724;SDS011;2376;53.544;10.226;2023-03-01T15:18:31;4.53;;;4.13;;
4724;SDS011;2376;53.544;10.226;2023-03-01T15:21:05;3.70;;;3.40;;
4724;SDS011;2376;53.544;10.226;2023-03-01T15:23:33;4.73;;;4.23;;
4724;SDS011;2376;53.544;10.226;2023-03-01T15:26:02;4.77;;;4.33;;
4724;SDS011;2376;53.544;10.226;2023-03-01T15:28:30;4.93;;;4.53;;
4724;SDS011;2376;53.544;10.226;2023-03-01T15:31:00;4.53;;;4.13;;